createdAt,value
2019-05-06T00:00:30.327Z,6.85
2019-05-06T00:03:00.203Z,6.85
2019-05-06T00:05:29.822Z,6.92
2019-05-06T00:07:59.373Z,7.37
2019-05-06T00:10:31.309Z,7.10
2019-05-06T00:13:00.877Z,6.97
2019-05-06T00:15:30.872Z,6.80
2019-05-06T00:18:00.386Z,7.30
2019-05-06T00:20:30.014Z,6.85
2019-05-06T00:23:16.574Z,8.00
2019-05-06T00:26:04.090Z,7.42
2019-05-06T00:28:44.701Z,7.75
2019-05-06T00:31:18.720Z,7.92
2019-05-06T00:33:48.276Z,7.72
2019-05-06T00:36:17.784Z,8.18
2019-05-06T00:38:48.910Z,7.90
2019-05-06T00:41:35.856Z,8.43
2019-05-06T00:44:04.027Z,8.63
2019-05-06T00:46:34.404Z,8.38
2019-05-06T00:49:04.278Z,8.38
2019-05-06T00:51:34.046Z,8.45
2019-05-06T00:54:11.167Z,8.38
2019-05-06T00:56:40.738Z,8.45
2019-05-06T00:59:10.184Z,8.48
2019-05-06T01:01:39.733Z,8.95
2019-05-06T01:04:09.571Z,8.40
2019-05-06T01:06:39.205Z,8.43
2019-05-06T01:09:11.222Z,9.10
2019-05-06T01:11:40.943Z,8.60
2019-05-06T01:14:15.020Z,9.00
2019-05-06T01:16:44.952Z,8.38
2019-05-06T01:19:14.453Z,8.98
2019-05-06T01:21:44.757Z,9.28
2019-05-06T01:24:14.810Z,9.10
2019-05-06T01:26:44.522Z,8.65
2019-05-06T01:29:14.648Z,9.10
2019-05-06T01:31:46.080Z,8.83
2019-05-06T01:34:15.304Z,9.85
2019-05-06T01:36:44.758Z,9.55
2019-05-06T01:39:30.637Z,9.08
2019-05-06T01:42:11.391Z,8.63
2019-05-06T01:44:40.941Z,9.25
2019-05-06T01:47:10.505Z,9.08
2019-05-06T01:49:40.316Z,9.80
2019-05-06T01:52:09.807Z,10.35
2019-05-06T01:54:39.266Z,9.90
2019-05-06T01:57:08.821Z,9.70
2019-05-06T01:59:38.275Z,9.33
2019-05-06T02:02:07.794Z,10.43
2019-05-06T02:04:37.345Z,9.68
2019-05-06T02:07:06.829Z,10.25
2019-05-06T02:09:36.785Z,10.55
2019-05-06T02:12:06.351Z,10.40
2019-05-06T02:14:36.103Z,9.93
2019-05-06T02:17:05.669Z,10.30
2019-05-06T02:19:35.837Z,10.03
2019-05-06T02:22:09.958Z,9.83
2019-05-06T02:24:44.079Z,10.38
2019-05-06T02:27:14.288Z,10.30
2019-05-06T02:29:49.504Z,9.95
2019-05-06T02:32:27.084Z,9.73
2019-05-06T02:35:04.913Z,10.03
2019-05-06T02:37:35.331Z,9.58
2019-05-06T02:40:07.900Z,10.35
2019-05-06T02:42:37.521Z,9.80
2019-05-06T02:45:07.161Z,9.63
2019-05-06T02:47:42.944Z,9.20
2019-05-06T02:50:14.371Z,14.10
2019-05-06T02:52:44.311Z,9.58
2019-05-06T02:55:14.170Z,9.33
2019-05-06T02:57:44.126Z,9.23
2019-05-06T03:00:18.986Z,9.35
2019-05-06T03:02:48.795Z,9.25
2019-05-06T03:05:18.322Z,8.78
2019-05-06T03:07:48.162Z,9.10
2019-05-06T03:10:18.282Z,9.08
2019-05-06T03:12:47.763Z,9.00
2019-05-06T03:15:17.615Z,9.28
2019-05-06T03:17:47.156Z,9.45
2019-05-06T03:20:24.165Z,8.83
2019-05-06T03:22:58.255Z,9.70
2019-05-06T03:25:29.570Z,9.40
2019-05-06T03:27:59.069Z,9.38
2019-05-06T03:30:28.552Z,9.95
2019-05-06T03:33:30.220Z,9.38
2019-05-06T03:35:44.210Z,9.08
2019-05-06T03:38:03.655Z,9.48
2019-05-06T03:40:36.082Z,9.23
2019-05-06T03:43:03.245Z,8.25
2019-05-06T03:45:34.367Z,8.25
2019-05-06T03:48:06.115Z,9.20
2019-05-06T03:50:35.717Z,8.33
2019-05-06T03:53:05.787Z,8.53
2019-05-06T03:55:36.278Z,8.58
2019-05-06T03:58:05.767Z,8.35
2019-05-06T04:00:36.357Z,8.13
2019-05-06T04:03:06.185Z,8.20
2019-05-06T04:05:36.407Z,8.43
2019-05-06T04:08:05.852Z,8.15
2019-05-06T04:10:36.980Z,8.05
2019-05-06T04:13:07.142Z,7.33
2019-05-06T04:15:54.965Z,7.85
2019-05-06T04:18:26.228Z,8.00
2019-05-06T04:20:58.548Z,8.05
2019-05-06T04:23:34.051Z,7.83
2019-05-06T04:26:07.120Z,7.35
2019-05-06T04:28:37.760Z,7.45
2019-05-06T04:31:07.283Z,7.92
2019-05-06T04:33:36.844Z,8.03
2019-05-06T04:36:06.635Z,7.62
2019-05-06T04:38:36.198Z,7.58
2019-05-06T04:41:05.715Z,7.50
2019-05-06T04:43:35.214Z,7.22
2019-05-06T04:46:04.795Z,7.53
2019-05-06T04:48:34.360Z,7.33
2019-05-06T04:51:03.986Z,7.50
2019-05-06T04:53:34.134Z,6.92
2019-05-06T04:56:04.461Z,7.25
2019-05-06T04:58:35.232Z,7.30
2019-05-06T05:01:04.829Z,7.12
2019-05-06T05:03:34.391Z,7.20
2019-05-06T05:06:05.819Z,7.12
2019-05-06T05:08:38.535Z,7.42
2019-05-06T05:11:13.701Z,7.12
2019-05-06T05:13:54.114Z,7.55
2019-05-06T05:16:33.100Z,7.40
2019-05-06T05:19:06.661Z,7.35
2019-05-06T05:21:36.184Z,7.40
2019-05-06T05:24:05.716Z,7.10
2019-05-06T05:26:35.605Z,7.25
2019-05-06T05:29:05.495Z,8.88
2019-05-06T05:31:35.127Z,7.70
2019-05-06T05:34:04.814Z,7.55
2019-05-06T05:36:34.454Z,8.00
2019-05-06T05:39:06.011Z,7.80
2019-05-06T05:41:35.643Z,7.80
2019-05-06T05:44:13.281Z,7.85
2019-05-06T05:46:43.841Z,7.70
2019-05-06T05:49:18.422Z,7.78
2019-05-06T05:51:46.586Z,7.67
2019-05-06T05:54:16.395Z,8.18
2019-05-06T05:56:45.903Z,8.08
2019-05-06T05:59:15.469Z,7.75
2019-05-06T06:01:44.990Z,7.53
2019-05-06T06:04:14.543Z,8.30
2019-05-06T06:06:44.126Z,8.68
2019-05-06T06:09:13.607Z,7.85
2019-05-06T06:11:53.167Z,8.33
2019-05-06T06:14:30.096Z,7.95
2019-05-06T06:17:19.443Z,7.72
2019-05-06T06:20:02.947Z,7.58
2019-05-06T06:22:33.187Z,7.72
2019-05-06T06:25:04.095Z,7.65
2019-05-06T06:27:35.757Z,7.78
2019-05-06T06:30:06.605Z,7.95
2019-05-06T06:32:36.849Z,7.95
2019-05-06T06:35:19.152Z,7.05
2019-05-06T06:37:52.199Z,7.37
2019-05-06T06:40:23.622Z,7.50
2019-05-06T06:42:56.223Z,7.78
2019-05-06T06:45:25.677Z,7.22
2019-05-06T06:47:55.236Z,7.10
2019-05-06T06:50:25.339Z,7.25
2019-05-06T06:52:58.416Z,7.47
2019-05-06T06:55:27.911Z,7.00
2019-05-06T06:58:16.807Z,7.22
2019-05-06T07:00:53.332Z,7.40
2019-05-06T07:03:32.755Z,6.80
2019-05-06T07:06:04.047Z,7.03
2019-05-06T07:08:37.399Z,7.00
2019-05-06T07:11:04.879Z,6.72
2019-05-06T07:13:34.438Z,6.50
2019-05-06T07:16:05.594Z,6.80
2019-05-06T07:18:35.151Z,7.17
2019-05-06T07:21:06.863Z,6.90
2019-05-06T07:23:37.191Z,6.75
2019-05-06T07:26:06.825Z,6.87
2019-05-06T07:28:36.497Z,6.78
2019-05-06T07:31:18.783Z,6.55
2019-05-06T07:33:37.148Z,7.30
2019-05-06T07:36:06.976Z,7.17
2019-05-06T07:38:36.516Z,6.72
2019-05-06T07:41:10.127Z,6.67
2019-05-06T07:43:43.676Z,6.70
2019-05-06T07:46:14.818Z,7.00
2019-05-06T07:48:44.395Z,10.95
2019-05-06T07:51:13.859Z,7.12
2019-05-06T07:53:43.485Z,6.87
2019-05-06T07:56:13.151Z,6.60
2019-05-06T07:58:43.429Z,6.20
2019-05-06T08:01:13.738Z,6.85
2019-05-06T08:03:43.501Z,7.15
2019-05-06T08:06:13.425Z,6.65
2019-05-06T08:08:43.658Z,6.65
2019-05-06T08:11:13.256Z,5.90
2019-05-06T08:13:45.727Z,6.15
2019-05-06T08:16:15.232Z,5.83
2019-05-06T08:18:44.731Z,6.20
2019-05-06T08:21:16.085Z,5.30
2019-05-06T08:23:47.284Z,5.83
2019-05-06T08:26:17.869Z,6.03
2019-05-06T08:28:47.635Z,6.37
2019-05-06T08:31:19.028Z,5.65
2019-05-06T08:33:48.519Z,5.17
2019-05-06T08:36:19.793Z,5.37
2019-05-06T08:38:59.091Z,5.10
2019-05-06T08:41:28.750Z,4.67
2019-05-06T08:43:58.264Z,5.50
2019-05-06T08:46:27.758Z,5.30
2019-05-06T08:48:57.248Z,5.55
2019-05-06T08:51:43.571Z,6.15
2019-05-06T08:54:24.318Z,5.45
2019-05-06T08:56:53.777Z,5.37
2019-05-06T08:59:24.025Z,5.80
2019-05-06T09:01:55.809Z,5.33
2019-05-06T09:04:25.325Z,5.28
2019-05-06T09:06:55.133Z,5.47
2019-05-06T09:09:24.882Z,5.55
2019-05-06T09:11:54.351Z,4.70
2019-05-06T09:14:27.324Z,4.50
2019-05-06T09:16:58.182Z,4.45
2019-05-06T09:19:27.699Z,4.28
2019-05-06T09:21:57.141Z,4.30
2019-05-06T09:24:26.577Z,4.15
2019-05-06T09:26:58.161Z,4.20
2019-05-06T09:29:32.704Z,5.10
2019-05-06T09:32:19.500Z,3.95
2019-05-06T09:34:53.178Z,4.35
2019-05-06T09:37:23.946Z,4.60
2019-05-06T09:39:53.995Z,4.67
2019-05-06T09:42:23.578Z,4.00
2019-05-06T09:44:54.388Z,4.50
2019-05-06T09:47:33.045Z,3.60
2019-05-06T09:50:04.952Z,3.83
2019-05-06T09:52:34.475Z,3.98
2019-05-06T09:55:09.990Z,4.05
2019-05-06T09:57:59.420Z,5.03
2019-05-06T10:00:32.964Z,4.70
2019-05-06T10:03:03.121Z,3.85
2019-05-06T10:05:33.381Z,3.35
2019-05-06T10:08:03.674Z,3.20
2019-05-06T10:10:34.225Z,3.92
2019-05-06T10:13:03.871Z,3.92
2019-05-06T10:15:33.619Z,4.40
2019-05-06T10:18:13.414Z,4.10
2019-05-06T10:20:45.443Z,4.58
2019-05-06T10:23:16.179Z,4.33
2019-05-06T10:25:45.736Z,3.98
2019-05-06T10:28:26.795Z,4.33
2019-05-06T10:30:56.357Z,4.05
2019-05-06T10:33:33.241Z,3.83
2019-05-06T10:36:04.175Z,4.15
2019-05-06T10:38:37.039Z,3.80
2019-05-06T10:41:12.997Z,4.05
2019-05-06T10:43:52.541Z,3.90
2019-05-06T10:46:22.636Z,3.90
2019-05-06T10:48:53.020Z,4.33
2019-05-06T10:51:32.247Z,4.05
2019-05-06T10:54:02.982Z,4.00
2019-05-06T10:56:49.087Z,3.83
2019-05-06T10:59:12.850Z,3.90
2019-05-06T11:01:49.479Z,3.60
2019-05-06T11:04:19.048Z,3.50
2019-05-06T11:06:48.634Z,3.62
2019-05-06T11:09:18.087Z,3.35
2019-05-06T11:11:47.983Z,3.30
2019-05-06T11:14:17.787Z,3.65
2019-05-06T11:16:47.304Z,2.80
2019-05-06T11:19:16.891Z,3.02
2019-05-06T11:21:46.543Z,3.47
2019-05-06T11:24:16.161Z,3.42
2019-05-06T11:26:45.666Z,3.45
2019-05-06T11:29:16.791Z,3.20
2019-05-06T11:31:47.952Z,3.30
2019-05-06T11:34:19.127Z,3.42
2019-05-06T11:36:56.253Z,3.27
2019-05-06T11:39:25.820Z,3.15
2019-05-06T11:42:15.001Z,3.22
2019-05-06T11:44:26.528Z,3.17
2019-05-06T11:46:56.159Z,3.17
2019-05-06T11:49:25.681Z,3.00
2019-05-06T11:51:55.167Z,3.12
2019-05-06T11:54:25.080Z,3.30
2019-05-06T11:56:58.168Z,3.25
2019-05-06T11:59:26.303Z,3.35
2019-05-06T12:02:02.622Z,3.27
2019-05-06T12:04:33.038Z,2.95
2019-05-06T12:07:11.423Z,2.95
2019-05-06T12:09:33.756Z,3.15
2019-05-06T12:12:03.483Z,3.35
2019-05-06T12:14:33.105Z,3.30
2019-05-06T12:17:02.590Z,3.70
2019-05-06T12:19:33.423Z,3.10
2019-05-06T12:22:04.985Z,3.42
2019-05-06T12:24:34.506Z,3.37
2019-05-06T12:27:05.139Z,3.30
2019-05-06T12:29:34.667Z,3.12
2019-05-06T12:32:08.427Z,2.90
2019-05-06T12:34:37.942Z,3.08
2019-05-06T12:37:09.141Z,2.80
2019-05-06T12:39:40.326Z,2.90
2019-05-06T12:42:14.327Z,3.60
2019-05-06T12:44:45.672Z,3.87
2019-05-06T12:47:16.972Z,3.25
2019-05-06T12:49:46.465Z,2.98
2019-05-06T12:52:15.954Z,3.30
2019-05-06T12:54:45.875Z,3.10
2019-05-06T12:57:15.700Z,2.98
2019-05-06T12:59:45.515Z,2.62
2019-05-06T13:02:15.064Z,3.15
2019-05-06T13:04:55.169Z,3.67
2019-05-06T13:07:18.154Z,3.95
2019-05-06T13:09:47.653Z,4.20
2019-05-06T13:12:18.791Z,3.83
2019-05-06T13:14:48.286Z,3.83
2019-05-06T13:17:19.720Z,3.50
2019-05-06T13:19:49.177Z,3.47
2019-05-06T13:22:24.249Z,3.72
2019-05-06T13:24:52.090Z,3.62
2019-05-06T13:27:23.625Z,3.70
2019-05-06T13:29:53.481Z,3.12
2019-05-06T13:32:24.619Z,3.50
2019-05-06T13:34:54.069Z,4.90
2019-05-06T13:37:23.665Z,3.37
2019-05-06T13:39:53.340Z,3.77
2019-05-06T13:42:24.666Z,3.67
2019-05-06T13:44:55.683Z,3.72
2019-05-06T13:47:42.625Z,4.08
2019-05-06T13:50:16.066Z,3.98
2019-05-06T13:52:47.214Z,3.60
2019-05-06T13:55:16.729Z,3.90
2019-05-06T13:57:46.246Z,3.50
2019-05-06T14:00:16.498Z,3.90
2019-05-06T14:02:53.019Z,3.30
2019-05-06T14:05:21.961Z,3.45
2019-05-06T14:07:52.798Z,3.58
2019-05-06T14:10:22.577Z,3.85
2019-05-06T14:12:53.360Z,3.72
2019-05-06T14:15:23.531Z,3.90
2019-05-06T14:17:53.576Z,3.90
2019-05-06T14:20:24.100Z,4.35
2019-05-06T14:22:53.565Z,4.33
2019-05-06T14:25:24.737Z,4.17
2019-05-06T14:27:58.665Z,4.10
2019-05-06T14:30:43.006Z,4.65
2019-05-06T14:33:15.432Z,4.20
2019-05-06T14:35:45.341Z,4.17
2019-05-06T14:38:14.791Z,4.37
2019-05-06T14:41:04.398Z,4.65
2019-05-06T14:43:33.864Z,4.00
2019-05-06T14:46:03.626Z,4.53
2019-05-06T14:48:33.333Z,4.50
2019-05-06T14:51:02.805Z,4.37
2019-05-06T14:53:33.304Z,4.35
2019-05-06T14:56:23.405Z,4.45
2019-05-06T14:59:05.931Z,4.72
2019-05-06T15:01:36.918Z,4.87
2019-05-06T15:04:06.579Z,5.00
2019-05-06T15:06:36.292Z,4.70
2019-05-06T15:09:08.114Z,5.35
2019-05-06T15:11:37.966Z,5.30
2019-05-06T15:14:07.876Z,5.67
2019-05-06T15:16:37.432Z,5.97
2019-05-06T15:19:06.940Z,6.33
2019-05-06T15:21:38.746Z,5.90
2019-05-06T15:24:07.684Z,5.78
2019-05-06T15:26:37.173Z,6.05
2019-05-06T15:29:06.976Z,5.78
2019-05-06T15:31:56.889Z,5.80
2019-05-06T15:34:33.642Z,6.08
2019-05-06T15:37:08.728Z,5.78
2019-05-06T15:39:38.539Z,5.92
2019-05-06T15:42:08.025Z,5.28
2019-05-06T15:44:37.514Z,5.35
2019-05-06T15:47:07.022Z,4.75
2019-05-06T15:49:36.538Z,4.83
2019-05-06T15:52:06.175Z,5.12
2019-05-06T15:54:35.723Z,4.62
2019-05-06T15:57:05.162Z,4.47
2019-05-06T15:59:34.648Z,3.95
2019-05-06T16:02:04.161Z,4.28
2019-05-06T16:04:33.815Z,4.37
2019-05-06T16:07:03.265Z,4.28
2019-05-06T16:09:32.994Z,4.20
2019-05-06T16:12:03.015Z,4.40
2019-05-06T16:14:34.893Z,3.95
2019-05-06T16:17:04.847Z,4.53
2019-05-06T16:19:35.504Z,5.17
2019-05-06T16:22:04.984Z,4.90
2019-05-06T16:24:38.775Z,4.55
2019-05-06T16:27:08.269Z,4.67
2019-05-06T16:29:38.226Z,3.90
2019-05-06T16:32:09.092Z,3.90
2019-05-06T16:34:38.600Z,4.10
2019-05-06T16:37:08.153Z,4.20
2019-05-06T16:39:37.599Z,4.33
2019-05-06T16:42:07.534Z,4.10
2019-05-06T16:44:37.020Z,4.33
2019-05-06T16:47:06.501Z,5.05
2019-05-06T16:49:36.031Z,4.60
2019-05-06T16:52:05.681Z,4.67
2019-05-06T16:54:35.194Z,5.00
2019-05-06T16:57:13.587Z,5.17
2019-05-06T16:59:43.683Z,5.22
2019-05-06T17:02:14.780Z,4.45
2019-05-06T17:04:49.766Z,4.62
2019-05-06T17:07:22.193Z,5.00
2019-05-06T17:09:52.611Z,4.58
2019-05-06T17:12:22.496Z,5.35
2019-05-06T17:14:52.802Z,5.78
2019-05-06T17:17:22.928Z,5.10
2019-05-06T17:19:52.940Z,4.60
2019-05-06T17:22:22.976Z,4.70
2019-05-06T17:24:52.939Z,4.95
2019-05-06T17:27:23.593Z,5.35
2019-05-06T17:29:57.736Z,5.17
2019-05-06T17:32:28.884Z,4.45
2019-05-06T17:35:02.436Z,5.28
2019-05-06T17:37:50.093Z,5.03
2019-05-06T17:40:23.070Z,4.90
2019-05-06T17:42:53.389Z,5.10
2019-05-06T17:45:57.995Z,5.03
2019-05-06T17:48:16.378Z,5.20
2019-05-06T17:50:47.511Z,4.90
2019-05-06T17:53:17.084Z,5.20
2019-05-06T17:55:46.533Z,5.40
2019-05-06T17:58:16.460Z,5.33
2019-05-06T18:00:46.277Z,5.20
2019-05-06T18:03:16.836Z,5.10
2019-05-06T18:05:46.398Z,5.28
2019-05-06T18:08:15.888Z,5.60
2019-05-06T18:10:45.401Z,5.37
2019-05-06T18:13:15.871Z,4.78
2019-05-06T18:15:45.369Z,4.92
2019-05-06T18:18:15.583Z,4.92
2019-05-06T18:20:45.076Z,4.83
2019-05-06T18:23:15.697Z,5.17
2019-05-06T18:25:45.259Z,5.15
2019-05-06T18:28:15.151Z,4.53
2019-05-06T18:30:44.722Z,5.12
2019-05-06T18:33:14.899Z,5.20
2019-05-06T18:35:45.060Z,5.00
2019-05-06T18:38:14.600Z,4.97
2019-05-06T18:40:44.914Z,5.20
2019-05-06T18:43:14.459Z,4.83
2019-05-06T18:45:44.277Z,5.40
2019-05-06T18:48:13.818Z,4.78
2019-05-06T18:50:43.685Z,5.35
2019-05-06T18:53:13.604Z,5.33
2019-05-06T18:55:43.138Z,5.35
2019-05-06T18:58:12.915Z,5.15
2019-05-06T19:00:44.017Z,5.25
2019-05-06T19:03:14.673Z,5.10
2019-05-06T19:05:45.163Z,5.72
2019-05-06T19:08:22.224Z,5.50
2019-05-06T19:10:53.207Z,5.50
2019-05-06T19:13:22.771Z,5.75
2019-05-06T19:15:52.739Z,5.28
2019-05-06T19:18:22.516Z,7.35
2019-05-06T19:20:53.077Z,6.70
2019-05-06T19:23:22.634Z,6.65
2019-05-06T19:25:52.113Z,6.97
2019-05-06T19:28:22.052Z,7.53
2019-05-06T19:30:54.137Z,7.97
2019-05-06T19:33:23.555Z,7.70
2019-05-06T19:35:54.093Z,8.45
2019-05-06T19:38:24.464Z,7.97
2019-05-06T19:40:55.239Z,8.93
2019-05-06T19:43:24.704Z,9.50
2019-05-06T19:45:54.278Z,10.18
2019-05-06T19:48:24.711Z,9.88
2019-05-06T19:50:55.834Z,11.25
2019-05-06T19:53:25.930Z,11.10
2019-05-06T19:55:55.388Z,11.30
2019-05-06T19:58:24.904Z,11.90
2019-05-06T20:00:56.393Z,12.33
2019-05-06T20:03:26.063Z,12.60
2019-05-06T20:05:57.834Z,13.48
2019-05-06T20:08:38.335Z,13.43
2019-05-06T20:11:13.649Z,13.75
2019-05-06T20:13:43.209Z,13.60
2019-05-06T20:16:13.073Z,11.48
2019-05-06T20:18:42.860Z,6.65
2019-05-06T20:21:12.427Z,7.67
2019-05-06T20:23:42.521Z,6.78
2019-05-06T20:26:12.505Z,7.67
2019-05-06T20:28:42.943Z,9.03
2019-05-06T20:31:12.711Z,8.30
2019-05-06T20:33:42.348Z,9.05
2019-05-06T20:36:12.606Z,8.00
2019-05-06T20:38:43.171Z,6.65
2019-05-06T20:41:13.707Z,7.40
2019-05-06T20:43:43.185Z,6.87
2019-05-06T20:46:13.035Z,6.90
2019-05-06T20:48:42.591Z,7.08
2019-05-06T20:51:13.204Z,6.53
2019-05-06T20:53:43.288Z,6.85
2019-05-06T20:56:12.775Z,7.45
2019-05-06T20:58:42.259Z,7.15
2019-05-06T21:01:13.183Z,7.50
2019-05-06T21:03:42.631Z,7.10
2019-05-06T21:06:13.185Z,7.65
2019-05-06T21:08:42.836Z,7.72
2019-05-06T21:11:25.893Z,8.00
2019-05-06T21:13:43.833Z,7.80
2019-05-06T21:16:13.645Z,7.70
2019-05-06T21:18:43.447Z,7.15
2019-05-06T21:21:13.651Z,7.80
2019-05-06T21:23:43.198Z,7.62
2019-05-06T21:26:13.694Z,7.50
2019-05-06T21:28:46.306Z,8.78
2019-05-06T21:31:14.981Z,7.95
2019-05-06T21:33:44.424Z,7.97
2019-05-06T21:36:13.932Z,9.43
2019-05-06T21:38:43.417Z,8.03
2019-05-06T21:41:12.858Z,8.05
2019-05-06T21:43:49.463Z,8.90
2019-05-06T21:46:13.956Z,8.53
2019-05-06T21:48:43.808Z,8.43
2019-05-06T21:51:13.596Z,8.70
2019-05-06T21:53:43.150Z,8.90
2019-05-06T21:56:13.153Z,8.95
2019-05-06T21:58:42.940Z,9.33
2019-05-06T22:01:13.166Z,9.30
2019-05-06T22:03:43.464Z,9.73
2019-05-06T22:06:13.498Z,9.38
2019-05-06T22:08:43.042Z,9.50
2019-05-06T22:11:12.910Z,9.08
2019-05-06T22:13:42.727Z,10.18
2019-05-06T22:16:12.618Z,9.48
2019-05-06T22:18:45.482Z,10.32
2019-05-06T22:21:22.522Z,10.20
2019-05-06T22:24:04.307Z,9.48
2019-05-06T22:26:32.996Z,9.88
2019-05-06T22:29:02.588Z,10.28
2019-05-06T22:31:33.055Z,11.10
2019-05-06T22:34:02.816Z,10.58
2019-05-06T22:36:32.677Z,10.32
2019-05-06T22:39:02.585Z,11.12
2019-05-06T22:41:33.714Z,10.80
2019-05-06T22:44:13.145Z,11.48
2019-05-06T22:46:34.508Z,11.60
2019-05-06T22:49:03.997Z,11.78
2019-05-06T22:51:33.442Z,11.93
2019-05-06T22:54:03.023Z,11.50
2019-05-06T22:56:32.736Z,12.68
2019-05-06T22:59:03.355Z,12.30
2019-05-06T23:01:43.796Z,13.20
2019-05-06T23:04:14.921Z,12.45
2019-05-06T23:06:44.374Z,12.93
2019-05-06T23:09:13.926Z,12.33
2019-05-06T23:11:43.390Z,11.95
2019-05-06T23:14:27.547Z,12.90
2019-05-06T23:16:44.518Z,12.10
2019-05-06T23:19:14.070Z,13.13
2019-05-06T23:21:43.879Z,13.25
2019-05-06T23:24:13.384Z,13.45
2019-05-06T23:26:42.851Z,13.38
2019-05-06T23:29:13.057Z,15.63
2019-05-06T23:31:43.255Z,14.45
2019-05-06T23:34:13.234Z,14.63
2019-05-06T23:37:02.671Z,14.23
2019-05-06T23:40:12.664Z,14.90
2019-05-06T23:43:22.059Z,15.75
2019-05-06T23:46:27.811Z,15.43
2019-05-06T23:49:34.127Z,16.30
2019-05-06T23:52:40.306Z,16.67
2019-05-06T23:55:46.181Z,16.27
2019-05-06T23:58:15.497Z,15.58
